sensor_id;sensor_type;location;lat;lon;timestamp;pressure;altitude;pressure_sealevel;temperature;humidity
71735;BME280;59577;52.122;5.406;2023-04-04T00:00:37;103164.19;;;2.23;75.90
71735;BME280;59577;52.122;5.406;2023-04-04T00:03:04;103168.72;;;2.22;76.17
71735;BME280;59577;52.122;5.406;2023-04-04T00:05:31;103160.13;;;2.20;76.03
71735;BME280;59577;52.122;5.406;2023-04-04T00:07:58;103159.81;;;2.17;76.17
71735;BME280;59577;52.122;5.406;2023-04-04T00:10:25;103161.41;;;2.18;76.11
71735;BME280;59577;52.122;5.406;2023-04-04T00:12:51;103153.06;;;2.14;76.18
71735;BME280;59577;52.122;5.406;2023-04-04T00:15:18;103154.34;;;2.12;76.29
71735;BME280;59577;52.122;5.406;2023-04-04T00:17:44;103152.97;;;2.09;76.28
71735;BME280;59577;52.122;5.406;2023-04-04T00:20:11;103138.13;;;2.01;76.37
71735;BME280;59577;52.122;5.406;2023-04-04T00:22:37;103146.13;;;2.01;76.71
71735;BME280;59577;52.122;5.406;2023-04-04T00:25:04;103144.41;;;1.95;76.57
71735;BME280;59577;52.122;5.406;2023-04-04T00:27:43;103142.22;;;1.92;76.92
71735;BME280;59577;52.122;5.406;2023-04-04T00:30:10;103138.72;;;1.92;76.93
71735;BME280;59577;52.122;5.406;2023-04-04T00:32:51;103140.47;;;1.86;77.15
71735;BME280;59577;52.122;5.406;2023-04-04T00:35:31;103132.34;;;1.81;77.09
71735;BME280;59577;52.122;5.406;2023-04-04T00:38:17;103131.78;;;1.79;77.08
71735;BME280;59577;52.122;5.406;2023-04-04T00:40:46;103136.31;;;1.78;77.39
71735;BME280;59577;52.122;5.406;2023-04-04T00:43:17;103136.06;;;1.80;77.76
71735;BME280;59577;52.122;5.406;2023-04-04T00:45:45;103140.03;;;1.77;77.89
71735;BME280;59577;52.122;5.406;2023-04-04T00:48:25;103137.94;;;1.79;77.99
71735;BME280;59577;52.122;5.406;2023-04-04T00:51:04;103135.16;;;1.74;78.04
71735;BME280;59577;52.122;5.406;2023-04-04T00:53:31;103135.16;;;1.74;78.09
71735;BME280;59577;52.122;5.406;2023-04-04T00:56:20;103130.50;;;1.69;77.98
71735;BME280;59577;52.122;5.406;2023-04-04T00:58:48;103134.22;;;1.68;78.23
71735;BME280;59577;52.122;5.406;2023-04-04T01:01:15;103133.56;;;1.61;78.21
71735;BME280;59577;52.122;5.406;2023-04-04T01:03:42;103128.69;;;1.58;78.69
71735;BME280;59577;52.122;5.406;2023-04-04T01:06:10;103133.31;;;1.51;78.51
71735;BME280;59577;52.122;5.406;2023-04-04T01:08:38;103136.22;;;1.49;78.96
71735;BME280;59577;52.122;5.406;2023-04-04T01:11:05;103130.53;;;1.46;78.81
71735;BME280;59577;52.122;5.406;2023-04-04T01:13:33;103138.78;;;1.44;78.73
71735;BME280;59577;52.122;5.406;2023-04-04T01:16:00;103137.38;;;1.42;79.27
71735;BME280;59577;52.122;5.406;2023-04-04T01:18:27;103138.09;;;1.37;79.13
71735;BME280;59577;52.122;5.406;2023-04-04T01:21:09;103125.88;;;1.29;79.30
71735;BME280;59577;52.122;5.406;2023-04-04T01:24:02;103133.78;;;1.24;78.92
71735;BME280;59577;52.122;5.406;2023-04-04T01:26:30;103130.19;;;1.19;78.92
71735;BME280;59577;52.122;5.406;2023-04-04T01:28:57;103129.59;;;1.17;79.34
71735;BME280;59577;52.122;5.406;2023-04-04T01:31:27;103137.03;;;1.15;79.50
71735;BME280;59577;52.122;5.406;2023-04-04T01:36:47;103143.41;;;1.13;79.84
71735;BME280;59577;52.122;5.406;2023-04-04T01:39:37;103135.84;;;1.10;79.72
71735;BME280;59577;52.122;5.406;2023-04-04T01:42:06;103129.00;;;1.03;79.44
71735;BME280;59577;52.122;5.406;2023-04-04T01:44:33;103138.25;;;1.00;79.71
71735;BME280;59577;52.122;5.406;2023-04-04T01:47:05;103138.03;;;1.02;79.48
71735;BME280;59577;52.122;5.406;2023-04-04T01:49:32;103139.22;;;1.06;79.52
71735;BME280;59577;52.122;5.406;2023-04-04T01:51:59;103141.06;;;1.05;80.06
71735;BME280;59577;52.122;5.406;2023-04-04T01:54:26;103130.63;;;1.04;79.96
71735;BME280;59577;52.122;5.406;2023-04-04T01:56:53;103137.22;;;1.01;79.85
71735;BME280;59577;52.122;5.406;2023-04-04T01:59:26;103126.44;;;0.96;80.25
71735;BME280;59577;52.122;5.406;2023-04-04T02:01:52;103128.75;;;0.92;80.10
71735;BME280;59577;52.122;5.406;2023-04-04T02:04:19;103135.00;;;0.86;80.12
71735;BME280;59577;52.122;5.406;2023-04-04T02:06:47;103133.84;;;0.82;80.21
71735;BME280;59577;52.122;5.406;2023-04-04T02:09:14;103131.63;;;0.79;80.08
71735;BME280;59577;52.122;5.406;2023-04-04T02:11:40;103138.22;;;0.77;80.06
71735;BME280;59577;52.122;5.406;2023-04-04T02:14:07;103144.00;;;0.73;80.47
71735;BME280;59577;52.122;5.406;2023-04-04T02:16:35;103137.25;;;0.71;80.17
71735;BME280;59577;52.122;5.406;2023-04-04T02:19:01;103144.91;;;0.67;80.53
71735;BME280;59577;52.122;5.406;2023-04-04T02:21:28;103151.28;;;0.66;80.62
71735;BME280;59577;52.122;5.406;2023-04-04T02:23:55;103146.19;;;0.65;80.51
71735;BME280;59577;52.122;5.406;2023-04-04T02:26:22;103152.53;;;0.64;80.33
71735;BME280;59577;52.122;5.406;2023-04-04T02:28:48;103150.56;;;0.59;80.41
71735;BME280;59577;52.122;5.406;2023-04-04T02:31:14;103153.09;;;0.54;80.65
71735;BME280;59577;52.122;5.406;2023-04-04T02:33:42;103152.38;;;0.47;80.74
71735;BME280;59577;52.122;5.406;2023-04-04T02:36:08;103143.19;;;0.43;80.91
71735;BME280;59577;52.122;5.406;2023-04-04T02:38:35;103142.41;;;0.42;81.06
71735;BME280;59577;52.122;5.406;2023-04-04T02:41:02;103140.75;;;0.41;81.03
71735;BME280;59577;52.122;5.406;2023-04-04T02:43:28;103134.41;;;0.42;81.29
71735;BME280;59577;52.122;5.406;2023-04-04T02:45:55;103129.53;;;0.39;81.60
71735;BME280;59577;52.122;5.406;2023-04-04T02:48:21;103120.59;;;0.33;81.29
71735;BME280;59577;52.122;5.406;2023-04-04T02:50:48;103128.00;;;0.31;81.32
71735;BME280;59577;52.122;5.406;2023-04-04T02:53:20;103122.44;;;0.33;81.49
71735;BME280;59577;52.122;5.406;2023-04-04T02:55:53;103117.94;;;0.33;81.42
71735;BME280;59577;52.122;5.406;2023-04-04T02:58:20;103121.84;;;0.31;80.98
71735;BME280;59577;52.122;5.406;2023-04-04T03:01:08;103116.72;;;0.29;81.53
71735;BME280;59577;52.122;5.406;2023-04-04T03:03:34;103116.38;;;0.26;80.92
71735;BME280;59577;52.122;5.406;2023-04-04T03:06:02;103118.00;;;0.27;81.31
71735;BME280;59577;52.122;5.406;2023-04-04T03:08:28;103115.78;;;0.24;81.09
71735;BME280;59577;52.122;5.406;2023-04-04T03:10:55;103115.88;;;0.17;81.11
71735;BME280;59577;52.122;5.406;2023-04-04T03:13:21;103113.44;;;0.15;81.17
71735;BME280;59577;52.122;5.406;2023-04-04T03:15:48;103119.38;;;0.17;81.38
71735;BME280;59577;52.122;5.406;2023-04-04T03:18:15;103120.16;;;0.18;81.53
71735;BME280;59577;52.122;5.406;2023-04-04T03:20:41;103116.69;;;0.17;81.64
71735;BME280;59577;52.122;5.406;2023-04-04T03:23:08;103124.91;;;0.16;81.96
71735;BME280;59577;52.122;5.406;2023-04-04T03:25:34;103119.81;;;0.14;81.84
71735;BME280;59577;52.122;5.406;2023-04-04T03:28:10;103107.97;;;0.10;81.70
71735;BME280;59577;52.122;5.406;2023-04-04T03:30:37;103114.78;;;0.06;82.08
71735;BME280;59577;52.122;5.406;2023-04-04T03:33:05;103106.44;;;0.03;82.00
71735;BME280;59577;52.122;5.406;2023-04-04T03:35:41;103114.06;;;-0.01;82.36
71735;BME280;59577;52.122;5.406;2023-04-04T03:38:08;103106.72;;;-0.06;82.29
71735;BME280;59577;52.122;5.406;2023-04-04T03:40:35;103102.91;;;-0.10;82.33
71735;BME280;59577;52.122;5.406;2023-04-04T03:43:01;103111.31;;;-0.13;82.40
71735;BME280;59577;52.122;5.406;2023-04-04T03:45:28;103102.53;;;-0.13;82.49
71735;BME280;59577;52.122;5.406;2023-04-04T03:47:55;103107.03;;;-0.14;82.69
71735;BME280;59577;52.122;5.406;2023-04-04T03:50:22;103105.63;;;-0.16;82.72
71735;BME280;59577;52.122;5.406;2023-04-04T03:52:48;103101.34;;;-0.17;83.07
71735;BME280;59577;52.122;5.406;2023-04-04T03:55:15;103102.00;;;-0.22;82.92
71735;BME280;59577;52.122;5.406;2023-04-04T03:57:42;103103.25;;;-0.25;82.70
71735;BME280;59577;52.122;5.406;2023-04-04T04:00:09;103097.78;;;-0.30;82.52
71735;BME280;59577;52.122;5.406;2023-04-04T04:02:36;103102.31;;;-0.30;82.71
71735;BME280;59577;52.122;5.406;2023-04-04T04:05:03;103108.00;;;-0.27;82.64
71735;BME280;59577;52.122;5.406;2023-04-04T04:07:29;103108.56;;;-0.25;82.68
71735;BME280;59577;52.122;5.406;2023-04-04T04:09:56;103114.75;;;-0.24;82.70
71735;BME280;59577;52.122;5.406;2023-04-04T04:12:24;103114.75;;;-0.24;82.65
71735;BME280;59577;52.122;5.406;2023-04-04T04:14:51;103116.78;;;-0.26;82.41
71735;BME280;59577;52.122;5.406;2023-04-04T04:17:18;103119.22;;;-0.25;82.71
71735;BME280;59577;52.122;5.406;2023-04-04T04:19:45;103120.50;;;-0.27;82.83
71735;BME280;59577;52.122;5.406;2023-04-04T04:22:11;103119.06;;;-0.30;82.96
71735;BME280;59577;52.122;5.406;2023-04-04T04:24:38;103119.53;;;-0.33;82.89
71735;BME280;59577;52.122;5.406;2023-04-04T04:27:04;103123.22;;;-0.34;82.84
71735;BME280;59577;52.122;5.406;2023-04-04T04:29:32;103113.22;;;-0.39;82.82
71735;BME280;59577;52.122;5.406;2023-04-04T04:31:58;103122.47;;;-0.41;82.90
71735;BME280;59577;52.122;5.406;2023-04-04T04:34:25;103104.50;;;-0.46;82.75
71735;BME280;59577;52.122;5.406;2023-04-04T04:36:51;103114.34;;;-0.46;83.36
71735;BME280;59577;52.122;5.406;2023-04-04T04:39:19;103122.16;;;-0.51;83.16
71735;BME280;59577;52.122;5.406;2023-04-04T04:41:45;103117.28;;;-0.54;83.09
71735;BME280;59577;52.122;5.406;2023-04-04T04:44:12;103121.22;;;-0.57;83.41
71735;BME280;59577;52.122;5.406;2023-04-04T04:46:39;103114.69;;;-0.61;83.32
71735;BME280;59577;52.122;5.406;2023-04-04T04:49:05;103107.75;;;-0.62;83.53
71735;BME280;59577;52.122;5.406;2023-04-04T04:51:32;103108.19;;;-0.65;83.63
71735;BME280;59577;52.122;5.406;2023-04-04T04:53:59;103117.41;;;-0.68;83.77
71735;BME280;59577;52.122;5.406;2023-04-04T04:56:25;103118.25;;;-0.67;83.88
71735;BME280;59577;52.122;5.406;2023-04-04T04:58:52;103125.38;;;-0.68;83.60
71735;BME280;59577;52.122;5.406;2023-04-04T05:01:18;103127.66;;;-0.71;83.70
71735;BME280;59577;52.122;5.406;2023-04-04T05:03:48;103128.94;;;-0.74;83.60
71735;BME280;59577;52.122;5.406;2023-04-04T05:06:18;103128.94;;;-0.74;83.90
71735;BME280;59577;52.122;5.406;2023-04-04T05:08:44;103134.03;;;-0.72;83.79
71735;BME280;59577;52.122;5.406;2023-04-04T05:11:10;103126.06;;;-0.72;83.99
71735;BME280;59577;52.122;5.406;2023-04-04T05:13:37;103124.78;;;-0.70;83.86
71735;BME280;59577;52.122;5.406;2023-04-04T05:16:03;103124.19;;;-0.72;84.10
71735;BME280;59577;52.122;5.406;2023-04-04T05:18:30;103122.50;;;-0.66;84.18
71735;BME280;59577;52.122;5.406;2023-04-04T05:20:56;103130.06;;;-0.63;84.02
71735;BME280;59577;52.122;5.406;2023-04-04T05:23:23;103128.34;;;-0.58;84.08
71735;BME280;59577;52.122;5.406;2023-04-04T05:25:50;103124.69;;;-0.57;84.07
71735;BME280;59577;52.122;5.406;2023-04-04T05:28:23;103127.50;;;-0.51;83.83
71735;BME280;59577;52.122;5.406;2023-04-04T05:30:52;103130.31;;;-0.46;83.60
71735;BME280;59577;52.122;5.406;2023-04-04T05:33:19;103126.75;;;-0.40;83.73
71735;BME280;59577;52.122;5.406;2023-04-04T05:35:46;103128.91;;;-0.30;83.43
71735;BME280;59577;52.122;5.406;2023-04-04T05:38:12;103132.75;;;-0.26;83.47
71735;BME280;59577;52.122;5.406;2023-04-04T05:40:39;103125.91;;;-0.15;83.27
71735;BME280;59577;52.122;5.406;2023-04-04T05:43:06;103135.50;;;0.04;83.38
71735;BME280;59577;52.122;5.406;2023-04-04T05:45:33;103126.25;;;0.55;83.40
71735;BME280;59577;52.122;5.406;2023-04-04T05:48:00;103120.69;;;1.11;82.47
71735;BME280;59577;52.122;5.406;2023-04-04T05:50:26;103128.44;;;1.24;81.18
71735;BME280;59577;52.122;5.406;2023-04-04T05:52:53;103118.34;;;1.15;80.53
71735;BME280;59577;52.122;5.406;2023-04-04T05:55:20;103121.84;;;1.39;80.55
71735;BME280;59577;52.122;5.406;2023-04-04T05:57:47;103130.22;;;2.35;79.62
71735;BME280;59577;52.122;5.406;2023-04-04T06:00:15;103128.81;;;3.85;77.80
71735;BME280;59577;52.122;5.406;2023-04-04T06:02:43;103126.31;;;5.57;73.08
71735;BME280;59577;52.122;5.406;2023-04-04T06:05:10;103123.81;;;7.78;68.16
71735;BME280;59577;52.122;5.406;2023-04-04T06:07:37;103121.78;;;9.47;62.05
71735;BME280;59577;52.122;5.406;2023-04-04T06:10:04;103118.69;;;10.92;56.54
71735;BME280;59577;52.122;5.406;2023-04-04T06:12:30;103118.28;;;11.59;53.50
71735;BME280;59577;52.122;5.406;2023-04-04T06:14:57;103119.16;;;11.55;52.82
71735;BME280;59577;52.122;5.406;2023-04-04T06:17:24;103129.41;;;13.12;49.76
71735;BME280;59577;52.122;5.406;2023-04-04T06:19:50;103109.75;;;15.04;45.02
71735;BME280;59577;52.122;5.406;2023-04-04T06:22:18;103111.78;;;13.99;44.41
71735;BME280;59577;52.122;5.406;2023-04-04T06:24:44;103113.59;;;11.04;47.47
71735;BME280;59577;52.122;5.406;2023-04-04T06:27:11;103116.81;;;8.72;51.03
71735;BME280;59577;52.122;5.406;2023-04-04T06:29:37;103112.06;;;7.38;54.14
71735;BME280;59577;52.122;5.406;2023-04-04T06:32:04;103107.00;;;7.16;56.32
71735;BME280;59577;52.122;5.406;2023-04-04T06:34:31;103111.25;;;7.53;57.38
71735;BME280;59577;52.122;5.406;2023-04-04T06:36:57;103116.19;;;6.89;58.08
71735;BME280;59577;52.122;5.406;2023-04-04T06:39:24;103115.88;;;7.32;60.02
71735;BME280;59577;52.122;5.406;2023-04-04T06:41:50;103128.09;;;7.84;58.60
71735;BME280;59577;52.122;5.406;2023-04-04T06:44:17;103127.72;;;7.26;59.18
71735;BME280;59577;52.122;5.406;2023-04-04T06:46:44;103132.06;;;6.60;60.01
71735;BME280;59577;52.122;5.406;2023-04-04T06:49:11;103134.50;;;6.72;61.36
71735;BME280;59577;52.122;5.406;2023-04-04T06:51:39;103135.00;;;7.25;59.90
71735;BME280;59577;52.122;5.406;2023-04-04T06:54:06;103137.72;;;7.00;59.58
71735;BME280;59577;52.122;5.406;2023-04-04T06:56:32;103141.72;;;6.46;60.95
71735;BME280;59577;52.122;5.406;2023-04-04T06:58:59;103143.63;;;6.71;61.79
71735;BME280;59577;52.122;5.406;2023-04-04T07:01:25;103139.28;;;7.37;61.52
71735;BME280;59577;52.122;5.406;2023-04-04T07:03:52;103137.25;;;7.88;60.31
71735;BME280;59577;52.122;5.406;2023-04-04T07:06:22;103133.56;;;7.69;59.28
71735;BME280;59577;52.122;5.406;2023-04-04T07:08:51;103138.13;;;8.28;61.06
71735;BME280;59577;52.122;5.406;2023-04-04T07:11:18;103127.59;;;10.79;57.83
71735;BME280;59577;52.122;5.406;2023-04-04T07:13:44;103125.53;;;13.76;51.78
71735;BME280;59577;52.122;5.406;2023-04-04T07:16:11;103125.78;;;15.74;48.06
71735;BME280;59577;52.122;5.406;2023-04-04T07:18:38;103134.16;;;17.07;45.17
71735;BME280;59577;52.122;5.406;2023-04-04T07:21:04;103130.69;;;18.37;43.03
71735;BME280;59577;52.122;5.406;2023-04-04T07:23:31;103127.56;;;18.95;41.32
71735;BME280;59577;52.122;5.406;2023-04-04T07:25:57;103123.25;;;19.62;40.07
71735;BME280;59577;52.122;5.406;2023-04-04T07:28:24;103126.28;;;20.31;38.60
71735;BME280;59577;52.122;5.406;2023-04-04T07:30:50;103117.22;;;20.93;38.57
71735;BME280;59577;52.122;5.406;2023-04-04T07:33:17;103131.97;;;21.31;36.75
71735;BME280;59577;52.122;5.406;2023-04-04T07:35:43;103120.59;;;21.32;37.00
71735;BME280;59577;52.122;5.406;2023-04-04T07:38:10;103125.00;;;21.37;33.46
71735;BME280;59577;52.122;5.406;2023-04-04T07:40:36;103114.13;;;21.21;29.92
71735;BME280;59577;52.122;5.406;2023-04-04T07:43:03;103126.06;;;21.55;30.47
71735;BME280;59577;52.122;5.406;2023-04-04T07:45:30;103129.66;;;21.33;29.17
71735;BME280;59577;52.122;5.406;2023-04-04T07:47:56;103128.91;;;20.63;29.89
71735;BME280;59577;52.122;5.406;2023-04-04T07:50:23;103130.44;;;19.50;31.78
71735;BME280;59577;52.122;5.406;2023-04-04T07:52:49;103125.19;;;18.66;32.08
71735;BME280;59577;52.122;5.406;2023-04-04T07:55:30;103125.63;;;17.58;33.17
71735;BME280;59577;52.122;5.406;2023-04-04T07:57:59;103123.38;;;15.72;33.98
71735;BME280;59577;52.122;5.406;2023-04-04T08:00:25;103112.66;;;14.99;36.15
71735;BME280;59577;52.122;5.406;2023-04-04T08:02:53;103123.00;;;14.67;35.52
71735;BME280;59577;52.122;5.406;2023-04-04T08:05:20;103122.63;;;14.86;38.65
71735;BME280;59577;52.122;5.406;2023-04-04T08:07:47;103112.44;;;16.44;36.60
71735;BME280;59577;52.122;5.406;2023-04-04T08:10:14;103122.41;;;16.95;36.91
71735;BME280;59577;52.122;5.406;2023-04-04T08:12:43;103121.88;;;16.80;36.25
71735;BME280;59577;52.122;5.406;2023-04-04T08:15:13;103119.41;;;16.87;35.76
71735;BME280;59577;52.122;5.406;2023-04-04T08:17:40;103114.56;;;17.55;33.00
71735;BME280;59577;52.122;5.406;2023-04-04T08:20:09;103111.88;;;17.83;35.87
71735;BME280;59577;52.122;5.406;2023-04-04T08:22:37;103117.91;;;18.57;35.79
71735;BME280;59577;52.122;5.406;2023-04-04T08:25:04;103110.81;;;19.16;35.71
71735;BME280;59577;52.122;5.406;2023-04-04T08:27:31;103113.66;;;19.71;35.65
71735;BME280;59577;52.122;5.406;2023-04-04T08:29:58;103102.94;;;19.66;34.50
71735;BME280;59577;52.122;5.406;2023-04-04T08:32:25;103100.91;;;19.63;34.82
71735;BME280;59577;52.122;5.406;2023-04-04T08:34:51;103102.94;;;19.66;35.13
71735;BME280;59577;52.122;5.406;2023-04-04T08:37:18;103098.59;;;19.81;30.45
71735;BME280;59577;52.122;5.406;2023-04-04T08:39:44;103098.88;;;19.76;29.92
71735;BME280;59577;52.122;5.406;2023-04-04T08:42:26;103099.13;;;19.71;33.81
71735;BME280;59577;52.122;5.406;2023-04-04T08:44:56;103093.16;;;19.69;30.59
71735;BME280;59577;52.122;5.406;2023-04-04T08:47:24;103090.56;;;19.92;32.05
71735;BME280;59577;52.122;5.406;2023-04-04T08:50:07;103101.41;;;20.04;33.64
71735;BME280;59577;52.122;5.406;2023-04-04T08:52:34;103100.38;;;19.93;31.32
71735;BME280;59577;52.122;5.406;2023-04-04T08:55:04;103096.97;;;20.00;32.94
71735;BME280;59577;52.122;5.406;2023-04-04T08:57:31;103093.00;;;20.17;31.77
71735;BME280;59577;52.122;5.406;2023-04-04T09:00:15;103090.47;;;20.08;32.13
71735;BME280;59577;52.122;5.406;2023-04-04T09:05:39;103095.56;;;20.06;32.02
71735;BME280;59577;52.122;5.406;2023-04-04T09:08:06;103087.94;;;20.38;30.49
71735;BME280;59577;52.122;5.406;2023-04-04T09:10:33;103086.69;;;20.36;30.36
71735;BME280;59577;52.122;5.406;2023-04-04T09:13:02;103090.34;;;20.43;28.46
71735;BME280;59577;52.122;5.406;2023-04-04T09:15:47;103093.69;;;20.53;27.06
71735;BME280;59577;52.122;5.406;2023-04-04T09:18:27;103096.28;;;19.83;26.34
71735;BME280;59577;52.122;5.406;2023-04-04T09:20:53;103093.00;;;19.78;25.26
71735;BME280;59577;52.122;5.406;2023-04-04T09:23:20;103091.63;;;19.52;25.35
71735;BME280;59577;52.122;5.406;2023-04-04T09:26:02;103092.94;;;19.23;27.10
71735;BME280;59577;52.122;5.406;2023-04-04T09:28:35;103088.56;;;19.22;28.53
71735;BME280;59577;52.122;5.406;2023-04-04T09:31:03;103087.25;;;19.31;30.75
71735;BME280;59577;52.122;5.406;2023-04-04T09:33:33;103092.91;;;19.74;30.95
71735;BME280;59577;52.122;5.406;2023-04-04T09:36:05;103091.22;;;19.69;27.85
71735;BME280;59577;52.122;5.406;2023-04-04T09:38:46;103084.75;;;19.42;27.46
71735;BME280;59577;52.122;5.406;2023-04-04T09:41:15;103089.13;;;19.11;30.34
71735;BME280;59577;52.122;5.406;2023-04-04T09:43:43;103082.91;;;19.30;29.83
71735;BME280;59577;52.122;5.406;2023-04-04T09:46:26;103083.78;;;20.05;32.71
71735;BME280;59577;52.122;5.406;2023-04-04T09:48:55;103072.53;;;20.57;28.52
71735;BME280;59577;52.122;5.406;2023-04-04T09:51:22;103070.28;;;20.62;27.60
71735;BME280;59577;52.122;5.406;2023-04-04T09:53:50;103070.06;;;20.28;25.16
71735;BME280;59577;52.122;5.406;2023-04-04T09:56:17;103068.66;;;18.93;25.26
71735;BME280;59577;52.122;5.406;2023-04-04T09:58:58;103070.50;;;17.60;25.52
71735;BME280;59577;52.122;5.406;2023-04-04T10:01:31;103073.94;;;17.20;28.67
71735;BME280;59577;52.122;5.406;2023-04-04T10:03:59;103070.59;;;17.76;26.41
71735;BME280;59577;52.122;5.406;2023-04-04T10:06:25;103072.88;;;17.86;26.58
71735;BME280;59577;52.122;5.406;2023-04-04T10:08:52;103074.47;;;17.62;27.74
71735;BME280;59577;52.122;5.406;2023-04-04T10:11:40;103070.81;;;18.11;29.89
71735;BME280;59577;52.122;5.406;2023-04-04T10:14:08;103069.41;;;17.77;27.40
71735;BME280;59577;52.122;5.406;2023-04-04T10:16:34;103061.03;;;17.57;27.60
71735;BME280;59577;52.122;5.406;2023-04-04T10:19:04;103061.97;;;17.37;28.77
71735;BME280;59577;52.122;5.406;2023-04-04T10:21:46;103059.03;;;16.59;27.16
71735;BME280;59577;52.122;5.406;2023-04-04T10:24:13;103046.13;;;16.14;28.17
71735;BME280;59577;52.122;5.406;2023-04-04T10:26:40;103046.91;;;15.81;28.59
71735;BME280;59577;52.122;5.406;2023-04-04T10:29:07;103047.16;;;16.09;28.97
71735;BME280;59577;52.122;5.406;2023-04-04T10:31:37;103050.22;;;16.08;29.28
71735;BME280;59577;52.122;5.406;2023-04-04T10:36:49;103038.28;;;15.49;29.86
71735;BME280;59577;52.122;5.406;2023-04-04T10:39:28;103033.47;;;15.46;28.58
71735;BME280;59577;52.122;5.406;2023-04-04T10:41:58;103033.34;;;15.13;28.93
71735;BME280;59577;52.122;5.406;2023-04-04T10:44:39;103037.19;;;15.41;28.84
71735;BME280;59577;52.122;5.406;2023-04-04T10:47:13;103031.53;;;15.97;29.43
71735;BME280;59577;52.122;5.406;2023-04-04T10:49:44;103026.00;;;16.52;28.53
71735;BME280;59577;52.122;5.406;2023-04-04T10:52:13;103027.09;;;16.05;27.68
71735;BME280;59577;52.122;5.406;2023-04-04T10:54:41;103021.78;;;16.21;30.36
71735;BME280;59577;52.122;5.406;2023-04-04T10:57:10;103024.88;;;16.65;29.66
71735;BME280;59577;52.122;5.406;2023-04-04T11:02:46;103023.16;;;16.61;28.44
71735;BME280;59577;52.122;5.406;2023-04-04T11:08:10;103017.56;;;16.11;28.90
71735;BME280;59577;52.122;5.406;2023-04-04T11:10:43;103018.31;;;16.00;29.40
71735;BME280;59577;52.122;5.406;2023-04-04T11:13:27;103016.34;;;16.21;28.67
71735;BME280;59577;52.122;5.406;2023-04-04T11:16:05;103006.06;;;16.51;31.31
71735;BME280;59577;52.122;5.406;2023-04-04T11:21:15;102991.81;;;17.44;30.32
71735;BME280;59577;52.122;5.406;2023-04-04T11:29:00;102987.44;;;17.03;30.49
71735;BME280;59577;52.122;5.406;2023-04-04T11:31:38;102987.47;;;17.72;34.41
71735;BME280;59577;52.122;5.406;2023-04-04T11:34:12;102987.47;;;17.43;27.65
71735;BME280;59577;52.122;5.406;2023-04-04T11:44:18;102977.31;;;16.33;26.96
71735;BME280;59577;52.122;5.406;2023-04-04T11:47:11;102980.03;;;16.33;27.68
71735;BME280;59577;52.122;5.406;2023-04-04T11:49:40;102978.72;;;16.39;29.67
71735;BME280;59577;52.122;5.406;2023-04-04T11:52:09;102973.63;;;15.83;28.28
71735;BME280;59577;52.122;5.406;2023-04-04T11:54:36;102971.22;;;15.60;30.00
71735;BME280;59577;52.122;5.406;2023-04-04T11:57:05;102972.75;;;15.07;30.16
71735;BME280;59577;52.122;5.406;2023-04-04T11:59:32;102967.03;;;15.42;34.86
71735;BME280;59577;52.122;5.406;2023-04-04T12:01:58;102970.16;;;16.28;35.15
71735;BME280;59577;52.122;5.406;2023-04-04T12:04:44;102964.78;;;15.86;32.09
71735;BME280;59577;52.122;5.406;2023-04-04T12:07:13;102957.00;;;15.34;30.66
71735;BME280;59577;52.122;5.406;2023-04-04T12:09:40;102953.94;;;14.76;34.23
71735;BME280;59577;52.122;5.406;2023-04-04T12:12:16;102955.03;;;15.13;33.34
71735;BME280;59577;52.122;5.406;2023-04-04T12:14:43;102950.38;;;14.45;30.96
71735;BME280;59577;52.122;5.406;2023-04-04T12:17:10;102939.19;;;14.38;31.50
71735;BME280;59577;52.122;5.406;2023-04-04T12:19:46;102926.78;;;14.58;34.22
71735;BME280;59577;52.122;5.406;2023-04-04T12:22:13;102932.13;;;14.76;34.89
71735;BME280;59577;52.122;5.406;2023-04-04T12:24:40;102926.13;;;14.53;31.02
71735;BME280;59577;52.122;5.406;2023-04-04T12:27:06;102924.91;;;14.33;31.90
71735;BME280;59577;52.122;5.406;2023-04-04T12:29:34;102920.81;;;14.18;31.10
71735;BME280;59577;52.122;5.406;2023-04-04T12:32:03;102925.13;;;14.27;31.08
71735;BME280;59577;52.122;5.406;2023-04-04T12:35:00;102914.97;;;14.37;31.07
71735;BME280;59577;52.122;5.406;2023-04-04T12:37:28;102919.97;;;14.35;31.56
71735;BME280;59577;52.122;5.406;2023-04-04T12:40:09;102920.81;;;14.18;33.19
71735;BME280;59577;52.122;5.406;2023-04-04T12:42:48;102904.66;;;14.60;36.35
71735;BME280;59577;52.122;5.406;2023-04-04T12:45:20;102908.13;;;15.20;34.35
71735;BME280;59577;52.122;5.406;2023-04-04T12:47:57;102905.34;;;15.08;35.15
71735;BME280;59577;52.122;5.406;2023-04-04T12:50:26;102909.75;;;15.21;35.48
71735;BME280;59577;52.122;5.406;2023-04-04T12:52:54;102900.16;;;15.15;33.13
71735;BME280;59577;52.122;5.406;2023-04-04T12:55:45;102897.56;;;14.68;32.41
71735;BME280;59577;52.122;5.406;2023-04-04T12:58:31;102900.31;;;14.11;33.01
71735;BME280;59577;52.122;5.406;2023-04-04T13:01:01;102901.94;;;14.13;32.45
71735;BME280;59577;52.122;5.406;2023-04-04T13:03:28;102892.88;;;14.38;31.67
71735;BME280;59577;52.122;5.406;2023-04-04T13:05:57;102886.34;;;14.22;34.16
71735;BME280;59577;52.122;5.406;2023-04-04T13:08:26;102871.78;;;14.56;33.77
71735;BME280;59577;52.122;5.406;2023-04-04T13:11:00;102875.75;;;14.29;32.62
71735;BME280;59577;52.122;5.406;2023-04-04T13:13:37;102874.91;;;13.99;32.47
71735;BME280;59577;52.122;5.406;2023-04-04T13:16:11;102864.81;;;13.90;33.41
71735;BME280;59577;52.122;5.406;2023-04-04T13:18:40;102867.13;;;13.62;34.11
71735;BME280;59577;52.122;5.406;2023-04-04T13:21:11;102863.13;;;13.51;34.02
71735;BME280;59577;52.122;5.406;2023-04-04T13:23:39;102865.97;;;13.11;33.21
71735;BME280;59577;52.122;5.406;2023-04-04T13:26:08;102865.34;;;13.14;33.25
71735;BME280;59577;52.122;5.406;2023-04-04T13:28:35;102856.44;;;13.40;35.64
71735;BME280;59577;52.122;5.406;2023-04-04T13:31:06;102850.81;;;14.09;38.86
71735;BME280;59577;52.122;5.406;2023-04-04T13:33:34;102847.72;;;14.88;38.16